Time;durP1;ratioP1;P1;durP2;ratioP2;P2;SDS_P1;SDS_P2;PMS_P1;PMS_P2;Temp;Humidity;BMP_temperature;BMP_pressure;BME280_temperature;BME280_humidity;BME280_pressure;Samples;Min_cycle;Max_cycle;Signal;HPM_P1;HPM_P2
2023/06/19 00:00:07;;;;;;;7.75;6.57;;;;;;;20.85;67.67;100644.38;4993730;28;20041;-90
2023/06/19 00:02:33;;;;;;;8.50;6.32;;;;;;;20.80;67.99;100657.38;4995350;28;20471;-90
2023/06/19 00:04:58;;;;;;;7.97;6.47;;;;;;;20.72;68.32;100655.25;4994016;28;20053;-90
2023/06/19 00:07:23;;;;;;;9.63;6.43;;;;;;;20.62;68.58;100647.84;4994666;28;20467;-91
2023/06/19 00:09:49;;;;;;;9.17;6.40;;;;;;;20.56;68.47;100663.59;4993820;28;20034;-90
2023/06/19 00:12:14;;;;;;;7.80;6.60;;;;;;;20.56;69.17;100671.03;4993445;28;20038;-90
2023/06/19 00:14:40;;;;;;;10.85;6.75;;;;;;;20.43;69.69;100672.50;4993539;28;20032;-90
2023/06/19 00:17:06;;;;;;;8.80;6.70;;;;;;;20.35;69.73;100671.19;4993600;28;20036;-90
2023/06/19 00:19:35;;;;;;;9.43;6.50;;;;;;;20.26;70.24;100675.66;4993735;28;20474;-90
2023/06/19 00:22:02;;;;;;;7.57;6.43;;;;;;;20.19;70.72;100681.47;4993581;28;20026;-90
2023/06/19 00:24:28;;;;;;;9.47;6.47;;;;;;;20.19;71.11;100691.66;4994606;28;20054;-90
2023/06/19 00:26:53;;;;;;;8.65;6.60;;;;;;;20.08;71.16;100694.47;4994078;28;20124;-90
2023/06/19 00:29:19;;;;;;;9.53;6.80;;;;;;;20.04;71.43;100692.56;4992495;28;20030;-90
2023/06/19 00:31:44;;;;;;;10.23;7.00;;;;;;;19.98;72.17;100700.03;4994423;28;20121;-90
2023/06/19 00:34:10;;;;;;;11.27;6.67;;;;;;;19.89;72.74;100704.50;4993370;28;20126;-90
2023/06/19 00:36:40;;;;;;;6.90;6.20;;;;;;;19.82;73.04;100698.44;4994248;28;20077;-90
2023/06/19 00:39:08;;;;;;;7.63;6.83;;;;;;;19.78;73.26;100700.94;4993529;28;20269;-90
2023/06/19 00:41:35;;;;;;;7.65;6.65;;;;;;;19.70;73.51;100698.75;4992941;28;20038;-89
2023/06/19 00:44:00;;;;;;;6.88;6.18;;;;;;;19.67;73.95;100700.13;4994515;28;20057;-89
2023/06/19 00:46:26;;;;;;;7.07;6.37;;;;;;;19.73;73.79;100715.50;4992876;28;20073;-89
2023/06/19 00:48:51;;;;;;;8.48;5.78;;;;;;;19.75;73.42;100712.47;4993211;28;20121;-89
2023/06/19 00:51:17;;;;;;;8.20;5.50;;;;;;;19.68;73.94;100701.78;4992844;28;20030;-89
2023/06/19 00:53:46;;;;;;;11.73;5.73;;;;;;;19.68;73.81;100726.53;4993010;28;20034;-90
2023/06/19 00:56:11;;;;;;;8.43;5.63;;;;;;;19.58;74.69;100713.63;4961736;28;20460;-89
2023/06/19 00:58:37;;;;;;;6.13;5.20;;;;;;;19.62;74.90;100722.97;4977733;28;20027;-90
2023/06/19 01:01:03;;;;;;;8.33;6.00;;;;;;;19.52;75.07;100719.44;4993510;28;20045;-89
2023/06/19 01:03:30;;;;;;;6.75;5.43;;;;;;;19.53;75.29;100721.91;4994281;28;20375;-89
2023/06/19 01:05:58;;;;;;;6.80;5.93;;;;;;;19.46;75.50;100724.13;4993066;28;20470;-89
2023/06/19 01:08:42;;;;;;;6.30;5.50;;;;;;;19.54;74.54;100729.03;4992857;28;20084;-90
2023/06/19 01:11:14;;;;;;;6.32;5.55;;;;;;;19.41;76.45;100733.22;4993199;28;20040;-90
2023/06/19 01:13:45;;;;;;;6.65;5.20;;;;;;;19.41;76.88;100735.13;4992963;28;20034;-90
2023/06/19 01:16:16;;;;;;;7.63;5.10;;;;;;;19.35;77.46;100727.97;4993151;28;20471;-89
2023/06/19 01:18:44;;;;;;;7.97;4.70;;;;;;;19.35;77.93;100726.03;4993251;28;20116;-90
2023/06/19 01:21:19;;;;;;;6.38;4.40;;;;;;;19.33;78.26;100732.94;4992862;28;20041;-89
2023/06/19 01:23:46;;;;;;;6.47;4.88;;;;;;;19.32;78.92;100736.78;4993036;28;20379;-90
2023/06/19 01:26:16;;;;;;;6.03;4.90;;;;;;;19.28;78.91;100742.84;4993001;28;20467;-90
2023/06/19 01:28:44;;;;;;;7.70;4.30;;;;;;;19.20;79.47;100740.63;4993477;28;20034;-90
2023/06/19 01:31:31;;;;;;;6.17;4.27;;;;;;;19.17;79.44;100735.69;4976779;28;20125;-90
2023/06/19 01:33:58;;;;;;;4.80;4.00;;;;;;;19.18;80.81;100751.09;4993250;28;20031;-89
2023/06/19 01:36:24;;;;;;;5.10;3.65;;;;;;;19.08;81.19;100731.84;4992700;28;20026;-90
2023/06/19 01:38:51;;;;;;;4.95;3.97;;;;;;;19.10;81.51;100741.47;4992650;28;20034;-89
2023/06/19 01:41:20;;;;;;;6.10;4.00;;;;;;;19.06;81.75;100759.63;4994432;28;20042;-90
2023/06/19 01:43:47;;;;;;;5.87;3.53;;;;;;;19.00;82.48;100751.63;4996234;28;20125;-90
2023/06/19 01:46:15;;;;;;;5.22;3.90;;;;;;;18.91;83.00;100756.84;4980096;28;20483;-90
2023/06/19 01:48:40;;;;;;;5.38;3.72;;;;;;;18.93;83.48;100757.41;4996146;28;20026;-90
2023/06/19 01:51:06;;;;;;;5.23;3.47;;;;;;;18.90;83.89;100746.97;4996593;28;20037;-90
2023/06/19 01:53:31;;;;;;;4.55;3.47;;;;;;;18.79;84.83;100748.84;4997169;28;20067;-90
2023/06/19 01:55:58;;;;;;;5.73;4.13;;;;;;;18.76;85.53;100761.22;4997106;28;20030;-90
2023/06/19 01:58:24;;;;;;;4.55;3.67;;;;;;;18.70;86.06;100750.47;4997632;28;20185;-90
2023/06/19 02:00:49;;;;;;;5.27;3.10;;;;;;;18.71;86.61;100765.88;4996143;28;20566;-90
2023/06/19 02:03:15;;;;;;;7.97;3.63;;;;;;;18.70;87.30;100767.78;4979787;28;20034;-90
2023/06/19 02:05:40;;;;;;;8.88;3.45;;;;;;;18.68;87.84;100763.69;4979953;28;20031;-90
2023/06/19 02:08:08;;;;;;;7.10;3.50;;;;;;;18.67;88.21;100762.03;4995721;28;20027;-90
2023/06/19 02:10:33;;;;;;;4.68;3.20;;;;;;;18.64;88.71;100771.63;4997211;28;20190;-90
2023/06/19 02:12:59;;;;;;;4.77;3.00;;;;;;;18.69;88.81;100774.41;4995612;28;20030;-90
2023/06/19 02:15:30;;;;;;;5.23;2.90;;;;;;;18.67;89.18;100781.25;4996150;28;20042;-90
2023/06/19 02:17:56;;;;;;;3.58;2.92;;;;;;;18.56;89.84;100770.25;4996216;28;20034;-90
2023/06/19 02:20:24;;;;;;;4.40;2.83;;;;;;;18.54;90.90;100769.69;4980443;28;20026;-90
2023/06/19 02:22:50;;;;;;;3.67;3.00;;;;;;;18.48;91.06;100773.50;4963542;28;20057;-90
2023/06/19 02:25:16;;;;;;;5.23;2.90;;;;;;;18.39;91.78;100767.72;4995246;28;20397;-90
2023/06/19 02:27:41;;;;;;;3.60;2.70;;;;;;;18.41;92.73;100790.25;4995525;28;20121;-90
2023/06/19 02:30:07;;;;;;;4.00;2.73;;;;;;;18.33;93.23;100771.53;4995554;28;20030;-90
2023/06/19 02:32:35;;;;;;;3.05;2.38;;;;;;;18.28;94.03;100771.53;4995726;28;20097;-90
2023/06/19 02:35:01;;;;;;;3.22;2.58;;;;;;;18.26;94.29;100776.44;4995469;28;20534;-90
2023/06/19 02:37:26;;;;;;;2.57;2.30;;;;;;;18.24;94.75;100775.91;4979262;28;20038;-90
2023/06/19 02:39:51;;;;;;;2.47;2.27;;;;;;;18.18;95.10;100772.31;4979728;28;20042;-90
2023/06/19 02:42:17;;;;;;;6.77;2.80;;;;;;;18.16;95.69;100768.16;4995404;28;20530;-90
2023/06/19 02:44:43;;;;;;;3.42;2.20;;;;;;;18.09;95.84;100771.19;4996580;28;20379;-89
2023/06/19 02:47:09;;;;;;;2.80;2.50;;;;;;;18.08;96.69;100772.25;4994883;28;20030;-90
2023/06/19 02:49:37;;;;;;;4.07;2.70;;;;;;;18.10;96.59;100788.47;4995083;28;20042;-90
2023/06/19 02:52:03;;;;;;;6.57;2.83;;;;;;;18.03;97.55;100781.31;4994276;28;20553;-90
2023/06/19 02:54:29;;;;;;;3.20;2.65;;;;;;;18.00;98.13;100779.09;4994970;28;20034;-90
2023/06/19 02:56:54;;;;;;;3.20;2.43;;;;;;;18.02;98.11;100798.84;4996886;28;20064;-90
2023/06/19 02:59:22;;;;;;;5.10;2.57;;;;;;;17.96;98.33;100785.38;4978974;28;20109;-89
2023/06/19 03:01:47;;;;;;;2.78;2.38;;;;;;;17.91;99.39;100785.34;4979250;28;20486;-89
2023/06/19 03:04:13;;;;;;;3.87;2.60;;;;;;;17.93;99.55;100796.91;4995195;28;20034;-90
2023/06/19 03:06:39;;;;;;;3.70;2.25;;;;;;;17.87;99.96;100793.25;4995677;28;20466;-90
2023/06/19 03:09:12;;;;;;;4.13;2.85;;;;;;;17.84;100.00;100802.03;4979260;28;20073;-90
2023/06/19 03:11:39;;;;;;;3.67;2.60;;;;;;;17.81;100.00;100800.63;4979846;28;20057;-89
2023/06/19 03:14:07;;;;;;;4.10;2.92;;;;;;;17.77;100.00;100812.41;4994969;28;20030;-89
2023/06/19 03:16:35;;;;;;;3.30;2.70;;;;;;;17.74;100.00;100808.28;4994721;28;20030;-89
2023/06/19 03:19:01;;;;;;;4.88;3.17;;;;;;;17.75;100.00;100818.16;4994870;28;20022;-89
2023/06/19 03:21:26;;;;;;;3.50;2.83;;;;;;;17.75;100.00;100812.69;4994881;28;20088;-90
2023/06/19 03:23:52;;;;;;;7.00;2.97;;;;;;;17.77;100.00;100821.47;4994781;28;20453;-89
2023/06/19 03:26:19;;;;;;;3.13;2.80;;;;;;;17.64;100.00;100809.03;4994282;28;20042;-89
2023/06/19 03:28:46;;;;;;;3.72;3.08;;;;;;;17.64;100.00;100808.19;4994587;28;20030;-89
2023/06/19 03:31:11;;;;;;;7.47;3.20;;;;;;;17.69;100.00;100821.97;4994097;28;20030;-89
2023/06/19 03:33:37;;;;;;;5.47;3.30;;;;;;;17.66;100.00;100826.06;4994395;28;20033;-89
2023/06/19 03:36:05;;;;;;;4.83;3.40;;;;;;;17.65;100.00;100818.91;4994250;28;20125;-89
2023/06/19 03:38:31;;;;;;;5.18;3.53;;;;;;;17.59;100.00;100816.41;4994239;28;20023;-89
2023/06/19 03:40:56;;;;;;;5.27;3.50;;;;;;;17.61;100.00;100830.69;4994184;28;20038;-89
2023/06/19 03:43:22;;;;;;;4.50;3.87;;;;;;;17.64;100.00;100831.00;4995060;28;20038;-90
2023/06/19 03:45:47;;;;;;;7.80;4.03;;;;;;;17.66;100.00;100831.53;4994257;28;20406;-90
2023/06/19 03:48:13;;;;;;;6.57;3.77;;;;;;;17.77;100.00;100835.19;4977947;28;20034;-89
2023/06/19 03:50:41;;;;;;;7.20;3.80;;;;;;;17.84;100.00;100845.94;4994077;28;20117;-90
2023/06/19 03:53:07;;;;;;;5.35;3.78;;;;;;;17.86;100.00;100841.00;4978727;28;20367;-90
2023/06/19 03:55:32;;;;;;;4.93;3.60;;;;;;;17.87;100.00;100842.66;4993918;28;20042;-90
2023/06/19 03:57:58;;;;;;;5.97;3.60;;;;;;;17.95;100.00;100852.34;4993655;28;20489;-90
2023/06/19 04:00:23;;;;;;;4.83;3.60;;;;;;;17.98;100.00;100855.41;4993928;28;20077;-90
2023/06/19 04:02:49;;;;;;;5.73;3.60;;;;;;;18.05;100.00;100861.50;4962480;28;20034;-90
2023/06/19 04:05:17;;;;;;;4.50;3.63;;;;;;;18.05;100.00;100863.38;4993865;28;20243;-90
2023/06/19 04:07:43;;;;;;;6.43;4.00;;;;;;;18.08;100.00;100857.38;4993641;28;20031;-90
2023/06/19 04:10:11;;;;;;;6.32;3.80;;;;;;;18.12;100.00;100871.41;4994745;28;20053;-90
2023/06/19 04:12:36;;;;;;;5.35;3.78;;;;;;;18.13;100.00;100864.81;4995533;28;20084;-90
2023/06/19 04:15:05;;;;;;;6.63;3.63;;;;;;;18.18;100.00;100870.34;4993745;28;20030;-90
2023/06/19 04:17:30;;;;;;;7.18;3.90;;;;;;;18.19;100.00;100872.00;4993580;28;20590;-89
2023/06/19 04:19:56;;;;;;;5.30;4.23;;;;;;;18.16;100.00;100878.84;4994871;28;20062;-89
2023/06/19 04:22:21;;;;;;;5.10;4.10;;;;;;;18.24;100.00;100888.50;4993426;28;20467;-90
2023/06/19 04:24:46;;;;;;;6.43;3.92;;;;;;;18.22;100.00;100875.03;4977026;28;20145;-90
2023/06/19 04:27:12;;;;;;;5.90;4.10;;;;;;;18.25;100.00;100876.44;4977389;28;20042;-90
2023/06/19 04:29:37;;;;;;;6.43;4.03;;;;;;;18.29;100.00;100880.28;4977946;28;20033;-90
2023/06/19 04:32:11;;;;;;;6.00;4.50;;;;;;;18.34;100.00;100902.28;4994641;28;20037;-90
2023/06/19 04:34:40;;;;;;;5.18;4.68;;;;;;;18.28;100.00;100888.78;4993909;28;20026;-90
2023/06/19 04:37:06;;;;;;;7.45;4.50;;;;;;;18.33;100.00;100906.13;4994567;28;20077;-89
2023/06/19 04:39:31;;;;;;;7.03;4.50;;;;;;;18.31;100.00;100894.56;4993345;28;20035;-90
2023/06/19 04:41:56;;;;;;;6.28;4.68;;;;;;;18.45;100.00;100905.91;4976995;28;20046;-90
2023/06/19 04:44:22;;;;;;;6.30;4.70;;;;;;;18.46;100.00;100910.31;4993425;28;20034;-90
2023/06/19 04:46:47;;;;;;;8.07;4.80;;;;;;;18.51;100.00;100921.34;4993161;28;20027;-90
2023/06/19 04:49:13;;;;;;;7.63;4.85;;;;;;;18.43;100.00;100908.09;4995048;28;20435;-90
2023/06/19 04:51:40;;;;;;;6.97;5.20;;;;;;;18.50;100.00;100913.34;4994379;28;20037;-89
2023/06/19 04:54:06;;;;;;;8.23;4.70;;;;;;;18.57;100.00;100914.78;4993808;28;20026;-90
2023/06/19 04:56:32;;;;;;;6.73;4.70;;;;;;;18.56;100.00;100904.88;4993681;28;20427;-89
2023/06/19 04:59:02;;;;;;;7.72;4.60;;;;;;;18.67;100.00;100918.66;4992753;28;20113;-90
2023/06/19 05:01:28;;;;;;;6.75;4.53;;;;;;;18.69;100.00;100913.69;4993859;28;20050;-90
2023/06/19 05:03:56;;;;;;;5.38;4.55;;;;;;;18.72;100.00;100905.75;4993076;28;20129;-89
2023/06/19 05:06:24;;;;;;;7.70;4.70;;;;;;;18.75;100.00;100907.97;4993258;28;20387;-89
2023/06/19 05:08:52;;;;;;;6.95;4.80;;;;;;;18.83;100.00;100920.38;4993124;28;20147;-90
2023/06/19 05:11:18;;;;;;;6.95;4.50;;;;;;;18.83;100.00;100922.28;4993458;28;20034;-89
2023/06/19 05:13:43;;;;;;;6.53;5.10;;;;;;;18.81;100.00;100914.31;4993860;28;20475;-89
2023/06/19 05:16:16;;;;;;;11.67;5.00;;;;;;;18.90;100.00;100909.16;4978636;28;20027;-93
2023/06/19 05:18:43;;;;;;;8.88;4.97;;;;;;;19.03;100.00;100921.56;4997603;28;20061;-95
2023/06/19 05:21:12;;;;;;;8.18;4.90;;;;;;;19.15;100.00;100926.81;4998374;28;20062;-94
2023/06/19 05:23:40;;;;;;;8.07;5.20;;;;;;;19.19;100.00;100923.28;4980412;28;20121;-93
2023/06/19 05:26:06;;;;;;;6.88;5.05;;;;;;;19.22;100.00;100932.88;4997771;28;20070;-93
2023/06/19 05:28:32;;;;;;;7.73;5.03;;;;;;;19.17;99.77;100930.94;4997854;28;20062;-94
2023/06/19 05:30:57;;;;;;;10.25;5.40;;;;;;;19.16;100.00;100943.03;4981297;28;20026;-90
2023/06/19 05:33:23;;;;;;;7.67;4.90;;;;;;;19.16;100.00;100942.22;4980372;28;20130;-90
2023/06/19 05:35:52;;;;;;;9.18;5.47;;;;;;;19.11;100.00;100943.84;4981050;28;20478;-96
2023/06/19 05:38:18;;;;;;;7.13;5.35;;;;;;;19.18;100.00;100935.38;4998761;28;20088;-95
2023/06/19 05:40:44;;;;;;;7.53;5.43;;;;;;;19.20;99.54;100943.34;4980893;28;20223;-95
2023/06/19 05:43:12;;;;;;;6.93;5.20;;;;;;;19.25;99.53;100948.84;4997056;28;20034;-95
2023/06/19 05:45:38;;;;;;;7.75;5.72;;;;;;;19.23;99.32;100951.03;4997184;28;20487;-95
2023/06/19 05:48:04;;;;;;;6.73;5.70;;;;;;;19.28;98.54;100943.63;4997441;28;20066;-94
2023/06/19 05:50:30;;;;;;;9.25;5.82;;;;;;;19.34;97.74;100944.47;4997149;28;20037;-95
2023/06/19 05:52:59;;;;;;;7.57;5.97;;;;;;;19.35;97.29;100951.63;4981664;28;20030;-95
2023/06/19 05:55:30;;;;;;;6.97;5.43;;;;;;;19.31;96.78;100946.94;4997219;28;20038;-95
2023/06/19 05:57:58;;;;;;;9.47;5.93;;;;;;;19.23;96.68;100931.78;4997272;28;20041;-94
2023/06/19 06:00:23;;;;;;;7.75;5.93;;;;;;;19.31;95.65;100947.78;4998165;28;20022;-95
2023/06/19 06:02:51;;;;;;;6.43;5.70;;;;;;;19.28;94.80;100931.78;4997259;28;20053;-95
2023/06/19 06:05:18;;;;;;;8.02;5.85;;;;;;;19.32;93.41;100954.91;4997028;28;20046;-95
2023/06/19 06:07:44;;;;;;;10.15;6.38;;;;;;;19.28;93.53;100967.53;4997223;28;20034;-93
2023/06/19 06:10:10;;;;;;;7.20;6.15;;;;;;;19.25;93.68;100960.69;4995806;28;20177;-93
2023/06/19 06:12:36;;;;;;;6.60;6.00;;;;;;;19.33;93.55;100953.81;4981431;28;20026;-94
2023/06/19 06:15:02;;;;;;;9.23;6.70;;;;;;;19.35;92.90;100954.38;4996643;28;20026;-94
2023/06/19 06:17:28;;;;;;;9.02;6.65;;;;;;;19.38;91.37;100975.00;4998711;28;20112;-94
2023/06/19 06:19:53;;;;;;;7.73;6.93;;;;;;;19.39;91.14;100977.50;4996159;28;20469;-94
2023/06/19 06:22:19;;;;;;;8.67;7.80;;;;;;;19.39;90.19;100982.19;4996840;28;20042;-94
2023/06/19 06:24:46;;;;;;;10.60;8.18;;;;;;;19.38;89.52;100981.34;4996040;28;20070;-94
2023/06/19 06:27:12;;;;;;;9.60;7.57;;;;;;;19.45;89.94;100986.59;4997327;28;20034;-94
2023/06/19 06:29:38;;;;;;;8.27;7.20;;;;;;;19.48;89.11;100974.22;4996906;28;20030;-94
2023/06/19 06:32:07;;;;;;;10.57;8.07;;;;;;;19.58;87.35;100999.00;4996797;28;20089;-94
2023/06/19 06:34:34;;;;;;;9.82;7.45;;;;;;;19.57;86.98;101017.41;4996270;28;20030;-95
2023/06/19 06:37:00;;;;;;;12.95;7.82;;;;;;;19.54;85.88;100995.13;4996232;28;20037;-94
2023/06/19 06:39:25;;;;;;;10.00;7.88;;;;;;;19.60;86.94;100999.53;4996207;28;20065;-93
2023/06/19 06:41:51;;;;;;;11.53;8.00;;;;;;;19.72;85.51;101013.06;4996366;28;20030;-94
2023/06/19 06:44:17;;;;;;;10.07;7.97;;;;;;;19.94;84.81;101019.16;4996584;28;20030;-93
2023/06/19 06:46:42;;;;;;;8.67;7.30;;;;;;;20.25;84.32;101015.59;4995068;28;20065;-93
2023/06/19 06:49:08;;;;;;;9.40;7.47;;;;;;;20.40;83.28;101006.47;4963724;28;20037;-94
2023/06/19 06:52:04;;;;;;;;;;;;;;;;;;;;;
2023/06/19 06:54:29;;;;;;;9.98;8.07;;;;;;;20.63;79.89;101027.13;4996612;28;20026;-85
2023/06/19 06:56:59;;;;;;;9.70;7.83;;;;;;;20.60;79.14;101022.97;4995950;28;20117;-85
2023/06/19 06:59:26;;;;;;;11.20;8.23;;;;;;;20.49;79.72;101035.97;4979908;28;20379;-85
2023/06/19 07:01:56;;;;;;;9.80;7.67;;;;;;;20.45;79.48;101023.03;4994429;28;20034;-87
2023/06/19 07:04:21;;;;;;;9.57;8.10;;;;;;;20.42;80.50;101015.31;4994772;28;20121;-87
2023/06/19 07:06:47;;;;;;;11.80;9.07;;;;;;;20.50;79.88;101042.28;4994774;28;20041;-88
2023/06/19 07:09:12;;;;;;;12.83;9.30;;;;;;;20.45;78.88;101029.34;4962493;28;20062;-87
2023/06/19 07:11:38;;;;;;;10.27;9.13;;;;;;;20.46;79.42;101038.44;4994745;28;20038;-87
2023/06/19 07:14:03;;;;;;;9.83;8.60;;;;;;;20.46;78.78;101046.69;4978684;28;20077;-87
2023/06/19 07:16:29;;;;;;;10.23;8.53;;;;;;;20.48;79.47;101050.03;4962260;28;20305;-88
2023/06/19 07:18:54;;;;;;;9.80;8.80;;;;;;;20.43;78.94;101050.00;4994830;28;20125;-88
2023/06/19 07:21:19;;;;;;;10.17;8.97;;;;;;;20.37;78.69;101043.69;4978578;28;20030;-88
2023/06/19 07:23:47;;;;;;;13.20;8.75;;;;;;;20.48;79.35;101045.31;4995276;28;20054;-88
2023/06/19 07:26:12;;;;;;;11.33;8.90;;;;;;;20.55;77.63;101047.81;4994126;28;20038;-87
2023/06/19 07:28:38;;;;;;;9.93;8.02;;;;;;;20.56;77.65;101065.97;4994199;28;20026;-88
2023/06/19 07:31:07;;;;;;;16.33;8.47;;;;;;;20.61;77.74;101057.72;4995222;28;20026;-88
2023/06/19 07:33:32;;;;;;;9.88;8.38;;;;;;;20.60;77.39;101063.50;4993979;28;20039;-87
2023/06/19 07:35:57;;;;;;;12.03;7.90;;;;;;;20.65;77.72;101069.00;4994410;28;20395;-88
2023/06/19 07:38:26;;;;;;;8.87;7.97;;;;;;;20.70;77.69;101069.03;4993701;28;20463;-88
2023/06/19 07:40:51;;;;;;;10.73;7.43;;;;;;;20.80;78.09;101071.78;4994136;28;20077;-85
2023/06/19 07:43:17;;;;;;;11.57;7.43;;;;;;;20.94;77.53;101065.69;4994345;28;20042;-87
2023/06/19 07:45:42;;;;;;;10.30;7.38;;;;;;;21.01;76.97;101064.28;4994054;28;20030;-90
2023/06/19 07:48:08;;;;;;;17.13;7.00;;;;;;;21.20;77.06;101067.25;4977821;28;20031;-87
2023/06/19 07:50:33;;;;;;;8.67;7.13;;;;;;;21.35;75.32;101066.34;4993617;28;20041;-86
2023/06/19 07:52:59;;;;;;;8.47;6.80;;;;;;;21.46;74.59;101061.59;4993961;28;20066;-88
2023/06/19 07:55:24;;;;;;;7.70;6.97;;;;;;;21.64;74.09;101074.00;4993797;28;20034;-89
2023/06/19 07:57:52;;;;;;;12.23;7.22;;;;;;;21.75;73.06;101077.50;4978227;28;20038;-89
2023/06/19 08:00:17;;;;;;;9.40;6.50;;;;;;;21.76;72.30;101062.59;4994029;28;20489;-89
2023/06/19 08:02:43;;;;;;;7.93;7.13;;;;;;;21.86;70.56;101061.69;4977882;28;20121;-89
2023/06/19 08:05:09;;;;;;;8.53;7.10;;;;;;;21.67;71.32;101073.41;4994732;28;20503;-90
2023/06/19 08:07:35;;;;;;;9.95;7.95;;;;;;;21.49;72.73;101085.88;4978296;28;20058;-86
2023/06/19 08:10:03;;;;;;;7.18;6.43;;;;;;;21.35;72.31;101077.41;4977444;28;20026;-86
2023/06/19 08:12:29;;;;;;;10.93;7.43;;;;;;;21.27;71.76;101069.69;4995019;28;20121;-86
2023/06/19 08:14:54;;;;;;;8.48;7.22;;;;;;;21.28;71.34;101082.38;4994989;28;20105;-86
2023/06/19 08:17:23;;;;;;;10.33;6.80;;;;;;;21.37;71.91;101086.22;4993378;28;20392;-88
2023/06/19 08:19:49;;;;;;;9.43;6.78;;;;;;;21.63;70.63;101077.84;4977548;28;20034;-86
2023/06/19 08:22:15;;;;;;;8.77;6.97;;;;;;;21.82;69.99;101060.59;4977421;28;20471;-87
2023/06/19 08:24:40;;;;;;;10.40;6.67;;;;;;;22.01;69.42;101080.09;4994657;28;20057;-86
2023/06/19 08:27:06;;;;;;;11.37;6.70;;;;;;;22.09;68.19;101073.97;4993709;28;20471;-87
2023/06/19 08:29:32;;;;;;;7.40;6.70;;;;;;;22.08;67.67;101073.13;4993405;28;20026;-86
2023/06/19 08:31:57;;;;;;;11.70;7.30;;;;;;;22.27;67.16;101080.72;4993000;28;20031;-88
2023/06/19 08:34:23;;;;;;;9.20;7.37;;;;;;;22.53;66.40;101092.44;4994891;28;20037;-87
2023/06/19 08:36:48;;;;;;;13.23;6.55;;;;;;;22.39;67.12;101089.50;4993587;28;20040;-87
2023/06/19 08:39:16;;;;;;;10.27;6.83;;;;;;;22.42;66.66;101099.16;4994334;28;20042;-90
2023/06/19 08:41:49;;;;;;;11.57;7.90;;;;;;;22.35;66.72;101095.91;4977401;28;20038;-90
2023/06/19 08:44:15;;;;;;;12.30;7.13;;;;;;;22.39;67.20;101097.78;4992986;28;20038;-86
2023/06/19 08:46:41;;;;;;;7.87;7.00;;;;;;;22.52;67.10;101098.25;4992807;28;20042;-87
2023/06/19 08:49:10;;;;;;;7.88;6.53;;;;;;;22.76;66.29;101104.69;4993769;28;20034;-84
2023/06/19 08:51:35;;;;;;;7.65;6.82;;;;;;;22.89;65.77;101113.41;4992112;28;20034;-88
2023/06/19 08:54:05;;;;;;;10.47;7.73;;;;;;;22.78;66.12;101127.31;4993024;28;20030;-85
2023/06/19 08:56:33;;;;;;;9.13;7.07;;;;;;;22.75;65.80;101119.59;4992551;28;20031;-85
2023/06/19 08:59:10;;;;;;;11.40;7.60;;;;;;;22.87;65.70;101124.75;4976972;28;20464;-87
2023/06/19 09:01:36;;;;;;;9.85;6.82;;;;;;;23.02;65.70;101118.22;4993432;28;20034;-93
2023/06/19 09:04:11;;;;;;;8.77;6.80;;;;;;;23.30;63.98;101119.31;4993741;28;20101;-94
2023/06/19 09:06:52;;;;;;;8.77;6.68;;;;;;;23.52;64.15;101122.66;4993578;28;20031;-94
2023/06/19 09:09:20;;;;;;;11.70;7.07;;;;;;;23.67;63.79;101116.94;4993530;28;20030;-90
2023/06/19 09:12:00;;;;;;;8.33;6.93;;;;;;;23.58;62.78;101132.56;4993261;28;20089;-93
2023/06/19 09:14:39;;;;;;;10.65;7.07;;;;;;;23.27;63.22;101116.34;4994275;28;20146;-93
2023/06/19 09:17:07;;;;;;;11.30;7.65;;;;;;;23.12;62.93;101112.63;4993784;28;20084;-90
2023/06/19 09:19:36;;;;;;;10.23;7.10;;;;;;;22.91;62.19;101142.41;4992683;28;20050;-90
2023/06/19 09:22:06;;;;;;;11.18;8.10;;;;;;;22.63;63.57;101132.16;4993941;28;20037;-90
2023/06/19 09:24:35;;;;;;;10.87;7.80;;;;;;;22.74;63.57;101144.78;4992877;28;20517;-90
2023/06/19 09:27:13;;;;;;;11.75;8.50;;;;;;;22.67;63.15;101149.84;4992704;28;20041;-91
2023/06/19 09:29:43;;;;;;;12.30;7.03;;;;;;;22.85;63.80;101140.78;4992972;28;20030;-89
2023/06/19 09:32:14;;;;;;;12.13;7.78;;;;;;;22.92;62.80;101151.53;4992894;28;20045;-90
2023/06/19 09:34:40;;;;;;;8.23;7.13;;;;;;;22.86;61.67;101147.16;4992440;28;20038;-91
2023/06/19 09:37:10;;;;;;;11.33;7.80;;;;;;;22.76;61.93;101148.09;4977172;28;20038;-92
2023/06/19 09:39:39;;;;;;;9.52;8.18;;;;;;;22.60;61.40;101152.91;4992996;28;20034;-91
2023/06/19 09:42:09;;;;;;;9.93;7.87;;;;;;;22.69;61.65;101145.66;4976653;28;20038;-91
2023/06/19 09:44:42;;;;;;;14.55;7.70;;;;;;;22.85;62.29;101154.63;4992530;28;20474;-91
2023/06/19 09:47:30;;;;;;;11.77;7.65;;;;;;;22.91;61.06;101153.50;4993050;28;20098;-91
2023/06/19 09:49:56;;;;;;;8.73;7.47;;;;;;;23.14;60.47;101153.03;4992864;28;20042;-91
2023/06/19 09:52:23;;;;;;;11.10;7.65;;;;;;;23.51;57.53;101159.81;4976405;28;20026;-91
2023/06/19 09:54:53;;;;;;;10.70;7.93;;;;;;;23.65;57.96;101157.94;4994357;28;20039;-92
2023/06/19 09:57:19;;;;;;;12.43;7.85;;;;;;;23.75;57.69;101151.44;4993864;28;20031;-91
2023/06/19 09:59:52;;;;;;;12.88;8.43;;;;;;;23.72;59.04;101150.09;4992449;28;20056;-91
2023/06/19 10:02:20;;;;;;;9.93;7.63;;;;;;;23.75;57.93;101154.22;4994470;28;20034;-91
2023/06/19 10:04:50;;;;;;;12.27;7.80;;;;;;;23.70;58.25;101149.56;4996000;28;20051;-91
2023/06/19 10:07:20;;;;;;;12.57;7.38;;;;;;;23.82;57.56;101147.19;4999705;28;20030;-91
2023/06/19 10:10:05;;;;;;;11.50;7.47;;;;;;;23.88;57.37;101152.72;4996118;28;20095;-91
2023/06/19 10:12:45;;;;;;;12.43;6.93;;;;;;;24.09;56.88;101147.69;4996026;28;20043;-91
2023/06/19 10:15:12;;;;;;;10.50;7.38;;;;;;;24.36;55.69;101160.88;4996075;28;20026;-91
2023/06/19 10:17:42;;;;;;;9.37;7.20;;;;;;;24.39;54.78;101154.72;4996456;28;20034;-91
2023/06/19 10:20:21;;;;;;;8.50;7.30;;;;;;;24.89;54.63;101147.81;4979976;28;20030;-91
2023/06/19 10:23:12;;;;;;;9.55;7.07;;;;;;;25.55;52.84;101159.63;4997668;28;20045;-91
2023/06/19 10:25:43;;;;;;;10.10;7.65;;;;;;;25.71;50.82;101152.59;4995566;28;20042;-91
2023/06/19 10:28:27;;;;;;;10.50;7.47;;;;;;;25.71;52.14;101143.44;4995495;28;20040;-91
2023/06/19 10:30:57;;;;;;;10.27;6.83;;;;;;;25.86;51.72;101150.63;4996571;28;20049;-91
2023/06/19 10:33:24;;;;;;;9.93;7.05;;;;;;;25.77;50.15;101158.88;4996781;28;20069;-91
2023/06/19 10:35:50;;;;;;;9.10;6.97;;;;;;;25.80;50.65;101158.25;4996653;28;20042;-92
2023/06/19 10:38:16;;;;;;;10.05;7.00;;;;;;;25.85;50.12;101158.16;4996323;28;20106;-91
2023/06/19 10:40:43;;;;;;;16.38;7.55;;;;;;;25.96;48.47;101163.50;4994976;28;20034;-92
2023/06/19 10:43:09;;;;;;;9.63;6.30;;;;;;;25.82;48.54;101161.56;4995463;28;20034;-92
2023/06/19 10:45:35;;;;;;;12.27;6.90;;;;;;;25.81;48.37;101161.88;4995500;28;20121;-91
2023/06/19 10:48:05;;;;;;;8.97;6.07;;;;;;;26.04;48.55;101162.75;4979148;28;20073;-91
2023/06/19 10:50:36;;;;;;;10.30;6.37;;;;;;;26.05;48.30;101154.09;4995156;28;20277;-92
2023/06/19 10:53:01;;;;;;;8.43;6.35;;;;;;;26.41;47.15;101160.78;4995927;28;20026;-91
2023/06/19 10:55:27;;;;;;;9.53;6.43;;;;;;;26.69;46.66;101163.47;4980420;28;20041;-91
2023/06/19 10:57:52;;;;;;;9.60;6.85;;;;;;;26.40;47.00;101153.59;4995574;28;20041;-92
2023/06/19 11:00:26;;;;;;;10.17;6.80;;;;;;;26.27;47.74;101149.72;4994984;28;20117;-91
2023/06/19 11:02:52;;;;;;;9.13;6.80;;;;;;;26.25;46.75;101152.81;4995721;28;20387;-91
2023/06/19 11:05:28;;;;;;;9.00;7.00;;;;;;;26.19;46.94;101136.56;4978723;28;20042;-91
2023/06/19 11:07:58;;;;;;;9.95;7.38;;;;;;;26.38;46.95;101148.34;4995116;28;20534;-92
2023/06/19 11:10:27;;;;;;;10.82;7.00;;;;;;;26.71;46.82;101128.63;4996416;28;20511;-91
2023/06/19 11:12:58;;;;;;;9.63;7.25;;;;;;;26.70;44.62;101137.28;4995595;28;20033;-91
2023/06/19 11:15:31;;;;;;;11.13;6.88;;;;;;;26.81;45.76;101148.97;4994245;28;20026;-91
2023/06/19 11:17:58;;;;;;;10.73;7.63;;;;;;;27.23;45.40;101141.97;4978767;28;20027;-92
2023/06/19 11:20:24;;;;;;;19.25;8.40;;;;;;;27.58;43.56;101150.50;4994710;28;20129;-92
2023/06/19 11:22:55;;;;;;;9.70;7.32;;;;;;;29.15;41.26;101135.63;4978833;28;20488;-92